createdAt,value
2022-10-19T00:02:10.979Z,9.27
2022-10-19T00:04:38.844Z,12.77
2022-10-19T00:07:08.108Z,7.30
2022-10-19T00:09:35.943Z,9.03
2022-10-19T00:12:03.857Z,10.47
2022-10-19T00:14:31.734Z,10.30
2022-10-19T00:16:59.647Z,8.93
2022-10-19T00:19:28.840Z,9.97
2022-10-19T00:21:56.693Z,14.50
2022-10-19T00:24:25.896Z,8.57
2022-10-19T00:26:53.679Z,8.47
2022-10-19T00:29:21.441Z,8.83
2022-10-19T00:31:50.486Z,9.47
2022-10-19T00:34:18.308Z,13.20
2022-10-19T00:36:46.531Z,14.33
2022-10-19T00:39:15.938Z,11.80
2022-10-19T00:41:46.195Z,9.17
2022-10-19T00:44:50.339Z,11.57
2022-10-19T00:47:19.749Z,9.80
2022-10-19T00:49:47.954Z,11.70
2022-10-19T00:52:18.981Z,12.17
2022-10-19T00:54:48.309Z,10.03
2022-10-19T00:57:17.524Z,12.13
2022-10-19T00:59:46.840Z,9.80
2022-10-19T01:02:14.862Z,12.07
2022-10-19T01:04:46.589Z,7.37
2022-10-19T01:07:14.805Z,14.90
2022-10-19T01:09:42.520Z,11.83
2022-10-19T01:12:29.533Z,11.27
2022-10-19T01:15:07.478Z,11.80
2022-10-19T01:17:41.222Z,9.27
2022-10-19T01:20:42.701Z,8.83
2022-10-19T01:23:27.608Z,11.67
2022-10-19T01:25:59.015Z,10.13
2022-10-19T01:28:39.927Z,8.90
2022-10-19T01:31:18.288Z,8.67
2022-10-19T01:33:49.931Z,6.30
2022-10-19T01:36:22.839Z,8.27
2022-10-19T01:38:55.972Z,8.27
2022-10-19T01:41:29.834Z,5.80
2022-10-19T01:44:01.994Z,17.07
2022-10-19T01:46:34.993Z,8.40
2022-10-19T01:49:05.310Z,9.30
2022-10-19T01:51:35.301Z,9.70
2022-10-19T01:54:06.628Z,7.60
2022-10-19T01:56:35.518Z,9.37
2022-10-19T01:59:05.484Z,9.63
2022-10-19T02:01:36.958Z,11.53
2022-10-19T02:04:05.424Z,9.43
2022-10-19T02:06:33.164Z,7.37
2022-10-19T02:09:01.110Z,6.63
2022-10-19T02:11:29.510Z,5.07
2022-10-19T02:14:00.276Z,8.20
2022-10-19T02:16:31.299Z,13.23
2022-10-19T02:19:01.418Z,12.63
2022-10-19T02:21:29.484Z,11.17
2022-10-19T02:23:57.209Z,7.83
2022-10-19T02:26:24.977Z,10.20
2022-10-19T02:28:54.823Z,15.37
2022-10-19T02:31:22.705Z,6.97
2022-10-19T02:33:50.491Z,9.73
2022-10-19T02:36:20.061Z,12.17
2022-10-19T02:38:47.902Z,6.90
2022-10-19T02:41:18.581Z,5.80
2022-10-19T02:43:49.897Z,7.40
2022-10-19T02:46:22.365Z,6.20
2022-10-19T02:48:51.457Z,5.37
2022-10-19T02:51:31.548Z,6.57
2022-10-19T02:54:02.615Z,5.40
2022-10-19T02:56:33.428Z,6.87
2022-10-19T02:59:01.216Z,12.37
2022-10-19T03:01:28.979Z,8.53
2022-10-19T03:03:56.829Z,7.37
2022-10-19T03:06:24.616Z,8.17
2022-10-19T03:08:53.753Z,5.63
2022-10-19T03:11:21.498Z,8.07
2022-10-19T03:13:49.205Z,7.47
2022-10-19T03:16:17.002Z,4.67
2022-10-19T03:18:44.734Z,5.10
2022-10-19T03:21:14.250Z,5.63
2022-10-19T03:23:42.626Z,4.13
2022-10-19T03:26:15.695Z,7.30
2022-10-19T03:28:43.551Z,5.40
2022-10-19T03:31:11.308Z,4.73
2022-10-19T03:33:39.093Z,4.20
2022-10-19T03:36:22.530Z,6.03
2022-10-19T03:38:53.842Z,4.50
2022-10-19T03:41:23.776Z,4.93
2022-10-19T03:43:52.113Z,5.00
2022-10-19T03:46:20.206Z,6.30
2022-10-19T03:48:48.249Z,4.63
2022-10-19T03:51:17.270Z,9.03
2022-10-19T03:53:46.509Z,5.10
2022-10-19T03:56:16.469Z,10.13
2022-10-19T03:58:46.830Z,7.00
2022-10-19T04:01:16.022Z,5.97
2022-10-19T04:03:43.778Z,5.50
2022-10-19T04:06:16.948Z,5.33
2022-10-19T04:08:49.320Z,6.20
2022-10-19T04:11:18.661Z,5.70
2022-10-19T04:13:49.134Z,7.90
2022-10-19T04:16:17.255Z,5.53
2022-10-19T04:18:45.030Z,4.20
2022-10-19T04:21:22.898Z,5.03
2022-10-19T04:23:51.501Z,6.27
2022-10-19T04:26:19.870Z,8.00
2022-10-19T04:28:49.143Z,6.20
2022-10-19T04:31:16.881Z,6.60
2022-10-19T04:36:17.282Z,7.37
2022-10-19T04:38:45.121Z,6.40
2022-10-19T04:41:14.246Z,6.07
2022-10-19T04:43:42.068Z,7.93
2022-10-19T04:46:13.898Z,7.60
2022-10-19T04:48:42.376Z,4.90
2022-10-19T04:51:10.955Z,8.17
2022-10-19T04:53:39.957Z,6.80
2022-10-19T04:56:09.654Z,7.73
2022-10-19T04:58:37.364Z,5.17
2022-10-19T05:01:08.896Z,9.90
2022-10-19T05:03:38.282Z,9.43
2022-10-19T05:06:06.689Z,9.77
2022-10-19T05:08:34.972Z,6.97
2022-10-19T05:11:03.617Z,9.77
2022-10-19T05:13:32.666Z,7.27
2022-10-19T05:16:01.385Z,10.03
2022-10-19T05:18:29.501Z,9.47
2022-10-19T05:21:03.925Z,8.70
2022-10-19T05:26:02.248Z,9.57
2022-10-19T05:28:30.271Z,12.33
2022-10-19T05:31:06.658Z,11.23
2022-10-19T05:33:35.173Z,12.13
2022-10-19T05:36:13.685Z,11.63
2022-10-19T05:38:41.466Z,10.73
2022-10-19T05:41:09.268Z,9.77
2022-10-19T05:43:37.065Z,11.30
2022-10-19T05:46:06.586Z,10.43
2022-10-19T05:48:34.924Z,9.87
2022-10-19T05:51:05.119Z,12.47
2022-10-19T05:53:35.094Z,12.33
2022-10-19T05:56:04.902Z,10.00
2022-10-19T05:58:33.404Z,9.07
2022-10-19T06:01:02.328Z,12.87
2022-10-19T06:03:30.409Z,15.53
2022-10-19T06:05:58.783Z,13.80
2022-10-19T06:08:26.915Z,13.50
2022-10-19T06:11:06.172Z,11.70
2022-10-19T06:13:33.932Z,12.60
2022-10-19T06:16:01.688Z,10.93
2022-10-19T06:18:29.617Z,12.93
2022-10-19T06:20:57.411Z,11.37
2022-10-19T06:23:25.129Z,13.07
2022-10-19T06:25:52.841Z,13.40
2022-10-19T06:28:21.904Z,13.20
2022-10-19T06:30:49.977Z,16.07
2022-10-19T06:33:17.717Z,17.27
2022-10-19T06:35:45.458Z,13.90
2022-10-19T06:38:13.855Z,16.13
2022-10-19T06:40:41.639Z,13.60
2022-10-19T06:43:09.385Z,13.50
2022-10-19T06:45:39.788Z,13.73
2022-10-19T06:48:08.048Z,15.73
2022-10-19T06:50:35.809Z,15.50
2022-10-19T06:53:03.665Z,12.57
2022-10-19T06:55:31.412Z,18.47
2022-10-19T06:58:01.599Z,22.53
2022-10-19T07:00:29.638Z,17.30
2022-10-19T07:02:59.396Z,18.50
2022-10-19T07:05:27.325Z,15.03
2022-10-19T07:07:55.093Z,16.33
2022-10-19T07:10:22.841Z,16.53
2022-10-19T07:12:50.729Z,17.77
2022-10-19T07:15:18.641Z,20.80
2022-10-19T07:17:46.395Z,22.27
2022-10-19T07:20:15.694Z,19.83
2022-10-19T07:22:43.411Z,19.03
2022-10-19T07:25:11.388Z,23.17
2022-10-19T07:27:40.443Z,15.23
2022-10-19T07:30:09.353Z,20.47
2022-10-19T07:32:37.123Z,16.73
2022-10-19T07:35:05.545Z,20.23
2022-10-19T07:37:34.990Z,17.43
2022-10-19T07:40:03.033Z,13.13
2022-10-19T07:42:31.384Z,15.17
2022-10-19T07:44:59.198Z,14.83
2022-10-19T07:47:26.900Z,12.77
2022-10-19T07:49:54.642Z,12.47
2022-10-19T07:52:22.397Z,12.60
2022-10-19T07:54:52.566Z,13.20
2022-10-19T07:57:22.235Z,12.47
2022-10-19T07:59:49.999Z,14.43
2022-10-19T08:02:18.540Z,11.20
2022-10-19T08:05:00.832Z,9.70
2022-10-19T08:07:30.653Z,8.03
2022-10-19T08:09:59.736Z,11.23
2022-10-19T08:12:27.617Z,11.52
2022-10-19T08:14:55.703Z,11.27
2022-10-19T08:17:23.481Z,9.82
2022-10-19T08:19:51.218Z,10.23
2022-10-19T08:22:18.979Z,9.65
2022-10-19T08:24:46.696Z,9.63
2022-10-19T08:27:16.001Z,6.68
2022-10-19T08:29:43.809Z,8.65
2022-10-19T08:32:12.035Z,8.77
2022-10-19T08:34:40.005Z,9.93
2022-10-19T08:37:19.727Z,9.00
2022-10-19T08:39:55.498Z,9.52
2022-10-19T08:42:29.551Z,7.82
2022-10-19T08:45:33.044Z,10.75
2022-10-19T08:48:11.893Z,7.18
2022-10-19T08:50:41.114Z,8.45
2022-10-19T08:53:12.431Z,9.15
2022-10-19T08:55:49.369Z,9.73
2022-10-19T08:58:29.637Z,9.45
2022-10-19T09:01:01.861Z,9.90
2022-10-19T09:03:54.391Z,7.97
2022-10-19T09:06:24.826Z,7.95
2022-10-19T09:08:54.243Z,8.43
2022-10-19T09:11:25.959Z,7.45
2022-10-19T09:14:05.919Z,7.47
2022-10-19T09:16:34.862Z,5.53
2022-10-19T09:19:03.300Z,7.43
2022-10-19T09:21:47.097Z,8.98
2022-10-19T09:24:26.502Z,8.93
2022-10-19T09:26:55.793Z,6.22
2022-10-19T09:29:28.910Z,8.45
2022-10-19T09:34:33.658Z,8.35
2022-10-19T09:37:01.707Z,3.67
2022-10-19T09:39:30.802Z,4.25
2022-10-19T09:42:00.206Z,5.07
2022-10-19T09:44:29.415Z,6.28
2022-10-19T09:47:03.700Z,6.40
2022-10-19T09:49:41.678Z,4.65
2022-10-19T09:52:25.522Z,6.15
2022-10-19T09:55:01.163Z,5.05
2022-10-19T09:57:28.901Z,5.90
2022-10-19T09:59:58.246Z,5.55
2022-10-19T10:02:32.071Z,4.80
2022-10-19T10:05:06.386Z,4.93
2022-10-19T10:07:37.059Z,4.82
2022-10-19T10:10:10.982Z,7.35
2022-10-19T10:18:21.218Z,4.07
2022-10-19T10:20:59.140Z,6.85
2022-10-19T10:23:28.823Z,8.18
2022-10-19T10:25:57.580Z,7.07
2022-10-19T10:28:26.998Z,3.17
2022-10-19T10:31:01.176Z,5.30
2022-10-19T10:33:44.256Z,4.43
2022-10-19T10:36:13.029Z,6.93
2022-10-19T10:38:42.635Z,4.85
2022-10-19T10:41:14.871Z,4.80
2022-10-19T10:43:52.992Z,4.28
2022-10-19T10:46:25.802Z,6.43
2022-10-19T10:48:55.735Z,4.38
2022-10-19T10:51:26.272Z,4.28
2022-10-19T10:54:09.857Z,3.47
2022-10-19T10:56:40.649Z,4.80
2022-10-19T10:59:14.124Z,3.65
2022-10-19T11:01:46.458Z,4.60
2022-10-19T11:04:18.641Z,4.65
2022-10-19T11:06:51.420Z,5.25
2022-10-19T11:09:24.250Z,3.42
2022-10-19T11:11:55.902Z,4.97
2022-10-19T11:14:28.323Z,6.07
2022-10-19T11:16:59.676Z,2.88
2022-10-19T11:19:31.454Z,3.28
2022-10-19T11:22:05.604Z,2.75
2022-10-19T11:24:41.884Z,6.00
2022-10-19T11:27:22.342Z,3.15
2022-10-19T11:29:59.671Z,3.63
2022-10-19T11:32:35.765Z,7.05
2022-10-19T11:35:16.638Z,4.38
2022-10-19T11:37:50.123Z,6.18
2022-10-19T11:40:45.830Z,4.43
2022-10-19T11:43:32.611Z,4.03
2022-10-19T11:46:04.632Z,4.88
2022-10-19T11:48:43.878Z,5.95
2022-10-19T11:51:21.677Z,3.55
2022-10-19T11:54:02.622Z,4.03
2022-10-19T11:56:45.026Z,6.07
2022-10-19T11:59:31.436Z,3.92
2022-10-19T12:02:05.734Z,4.30
2022-10-19T12:04:44.854Z,5.60
2022-10-19T12:07:26.712Z,3.17
2022-10-19T12:10:02.661Z,2.88
2022-10-19T12:12:33.155Z,2.42
2022-10-19T12:15:07.046Z,3.05
2022-10-19T12:17:38.047Z,5.00
2022-10-19T12:20:17.464Z,2.58
2022-10-19T12:22:48.685Z,6.28
2022-10-19T12:25:16.875Z,4.60
2022-10-19T12:27:46.616Z,3.30
2022-10-19T12:30:16.633Z,2.70
2022-10-19T12:32:54.216Z,3.38
2022-10-19T12:35:37.024Z,4.78
2022-10-19T12:38:08.110Z,3.55
2022-10-19T12:40:39.674Z,2.63
2022-10-19T12:43:12.292Z,2.65
2022-10-19T12:45:42.782Z,6.85
2022-10-19T12:48:22.449Z,4.47
2022-10-19T12:51:13.006Z,3.60
2022-10-19T12:53:42.749Z,2.97
2022-10-19T12:56:14.342Z,2.88
2022-10-19T12:58:48.278Z,7.18
2022-10-19T13:01:20.130Z,4.28
2022-10-19T13:03:48.969Z,3.85
2022-10-19T13:06:30.395Z,4.88
2022-10-19T13:08:59.985Z,10.93
2022-10-19T13:11:27.867Z,4.25
2022-10-19T13:14:03.433Z,5.40
2022-10-19T13:16:42.243Z,7.03
2022-10-19T13:19:20.978Z,3.30
2022-10-19T13:22:27.572Z,3.38
2022-10-19T13:25:35.113Z,5.53
2022-10-19T13:28:36.837Z,5.35
2022-10-19T13:31:08.150Z,5.68
2022-10-19T13:33:49.659Z,5.13
2022-10-19T13:36:17.639Z,4.80
2022-10-19T13:38:46.953Z,3.75
2022-10-19T13:41:18.153Z,3.88
2022-10-19T13:44:03.429Z,5.63
2022-10-19T13:46:45.113Z,4.00
2022-10-19T13:49:34.406Z,5.65
2022-10-19T13:52:14.285Z,3.08
2022-10-19T13:54:59.082Z,4.03
2022-10-19T13:57:34.451Z,3.92
2022-10-19T14:00:10.990Z,2.17
2022-10-19T14:03:05.428Z,6.28
2022-10-19T14:06:17.161Z,7.15
2022-10-19T14:09:16.706Z,3.72
2022-10-19T14:11:46.108Z,4.07
2022-10-19T14:14:15.700Z,3.20
2022-10-19T14:16:51.469Z,2.80
2022-10-19T14:19:26.910Z,2.97
2022-10-19T14:21:59.382Z,5.95
2022-10-19T14:24:30.382Z,5.07
2022-10-19T14:26:58.667Z,4.30
2022-10-19T14:29:26.477Z,3.85
2022-10-19T14:31:55.695Z,4.00
2022-10-19T14:34:23.589Z,5.07
2022-10-19T14:36:51.611Z,4.35
2022-10-19T14:39:30.820Z,5.43
2022-10-19T14:42:01.629Z,10.00
2022-10-19T14:44:38.574Z,5.63
2022-10-19T14:47:22.263Z,5.43
2022-10-19T14:49:51.230Z,2.90
2022-10-19T14:52:22.608Z,2.53
2022-10-19T14:54:52.183Z,4.03
2022-10-19T14:57:24.703Z,3.42
2022-10-19T14:59:54.491Z,3.15
2022-10-19T15:02:25.922Z,2.65
2022-10-19T15:04:54.557Z,4.50
2022-10-19T15:07:26.141Z,4.00
2022-10-19T15:09:55.917Z,1.95
2022-10-19T15:12:28.516Z,4.10
2022-10-19T15:14:56.612Z,2.95
2022-10-19T15:17:30.463Z,3.65
2022-10-19T15:20:01.131Z,4.03
2022-10-19T15:22:40.496Z,6.10
2022-10-19T15:25:31.054Z,3.22
2022-10-19T15:27:58.890Z,11.20
2022-10-19T15:30:28.705Z,4.67
2022-10-19T15:33:11.638Z,4.15
2022-10-19T15:35:40.361Z,4.55
2022-10-19T15:38:13.318Z,1.85
2022-10-19T15:40:42.684Z,5.20
2022-10-19T15:43:41.554Z,4.28
2022-10-19T15:46:22.348Z,4.53
2022-10-19T15:48:55.193Z,2.47
2022-10-19T15:51:46.965Z,6.82
2022-10-19T15:54:17.182Z,3.05
2022-10-19T15:56:46.543Z,4.28
2022-10-19T15:59:18.631Z,9.98
2022-10-19T16:01:51.123Z,4.45
2022-10-19T16:04:24.317Z,5.80
2022-10-19T16:06:52.179Z,5.10
2022-10-19T16:09:21.740Z,6.40
2022-10-19T16:11:56.171Z,3.95
2022-10-19T16:14:24.009Z,6.68
2022-10-19T16:16:51.873Z,6.00
2022-10-19T16:19:19.668Z,7.10
2022-10-19T16:21:50.397Z,4.95
2022-10-19T16:24:18.262Z,4.85
2022-10-19T16:26:45.906Z,3.28
2022-10-19T16:29:13.622Z,2.80
2022-10-19T16:31:41.322Z,5.03
2022-10-19T16:34:09.019Z,4.63
2022-10-19T16:36:36.710Z,3.65
2022-10-19T16:39:05.842Z,4.72
2022-10-19T16:41:33.657Z,4.72
2022-10-19T16:44:01.552Z,5.20
2022-10-19T16:46:29.463Z,5.18
2022-10-19T16:48:57.216Z,3.75
2022-10-19T16:51:43.033Z,4.82
2022-10-19T16:54:12.712Z,5.95
2022-10-19T16:56:45.579Z,4.10
2022-10-19T16:59:14.540Z,4.15
2022-10-19T17:01:44.023Z,3.50
2022-10-19T17:04:12.318Z,2.72
2022-10-19T17:06:40.666Z,6.47
2022-10-19T17:09:40.884Z,7.80
2022-10-19T17:11:57.998Z,4.28
2022-10-19T17:14:25.805Z,3.03
2022-10-19T17:16:53.546Z,7.28
2022-10-19T17:19:21.274Z,5.18
2022-10-19T17:21:49.596Z,6.40
2022-10-19T17:24:21.883Z,6.13
2022-10-19T17:26:50.952Z,6.78
2022-10-19T17:29:20.742Z,4.47
2022-10-19T17:31:48.637Z,4.82
2022-10-19T17:34:17.162Z,5.68
2022-10-19T17:36:46.173Z,7.00
2022-10-19T17:39:17.607Z,8.20
2022-10-19T17:41:45.787Z,6.90
2022-10-19T17:44:13.740Z,5.35
2022-10-19T17:46:42.850Z,7.10
2022-10-19T17:49:10.927Z,8.63
2022-10-19T17:51:39.099Z,6.25
2022-10-19T17:54:09.361Z,7.20
2022-10-19T17:56:39.971Z,6.75
2022-10-19T17:59:09.295Z,6.90
2022-10-19T18:01:37.960Z,8.80
2022-10-19T18:04:07.336Z,7.07
2022-10-19T18:06:36.483Z,5.70
2022-10-19T18:09:06.412Z,7.60
2022-10-19T18:11:36.999Z,6.72
2022-10-19T18:14:05.913Z,7.40
2022-10-19T18:16:35.516Z,5.35
2022-10-19T18:19:04.837Z,6.85
2022-10-19T18:21:36.219Z,9.02
2022-10-19T18:24:04.579Z,7.03
2022-10-19T18:26:33.738Z,8.98
2022-10-19T18:29:03.042Z,9.00
2022-10-19T18:31:31.660Z,5.65
2022-10-19T18:34:01.088Z,6.63
2022-10-19T18:36:29.185Z,8.48
2022-10-19T18:38:59.470Z,7.93
2022-10-19T18:41:28.141Z,9.65
2022-10-19T18:43:57.371Z,8.10
2022-10-19T18:46:25.802Z,8.05
2022-10-19T18:48:53.616Z,5.97
2022-10-19T18:51:22.407Z,7.63
2022-10-19T18:53:50.965Z,10.55
2022-10-19T18:56:21.465Z,9.10
2022-10-19T18:58:49.426Z,7.30
2022-10-19T19:01:18.603Z,7.45
2022-10-19T19:03:49.579Z,5.80
2022-10-19T19:06:19.403Z,5.80
2022-10-19T19:08:47.284Z,7.97
2022-10-19T19:11:17.062Z,8.63
2022-10-19T19:13:50.272Z,8.13
2022-10-19T19:16:18.019Z,19.47
2022-10-19T19:18:45.847Z,9.18
2022-10-19T19:21:15.766Z,20.33
2022-10-19T19:23:43.635Z,8.17
2022-10-19T19:26:12.990Z,7.73
2022-10-19T19:28:42.270Z,8.70
2022-10-19T19:31:15.257Z,9.20
2022-10-19T19:33:43.704Z,8.93
2022-10-19T19:36:13.639Z,11.37
2022-10-19T19:38:41.545Z,6.80
2022-10-19T19:41:11.480Z,8.57
2022-10-19T19:43:39.817Z,14.47
2022-10-19T19:46:09.615Z,6.93
2022-10-19T19:48:39.229Z,8.07
2022-10-19T19:51:08.677Z,11.57
2022-10-19T19:53:37.023Z,13.50
2022-10-19T19:56:04.788Z,8.03
2022-10-19T19:58:32.550Z,6.83
2022-10-19T20:01:00.325Z,9.30
2022-10-19T20:03:28.142Z,7.37
2022-10-19T20:06:02.240Z,7.23
2022-10-19T20:08:30.104Z,6.73
2022-10-19T20:11:02.769Z,11.97
2022-10-19T20:13:30.608Z,9.47
2022-10-19T20:15:58.945Z,9.47
2022-10-19T20:18:26.737Z,8.73
2022-10-19T20:20:54.468Z,10.63
2022-10-19T20:23:23.542Z,12.00
2022-10-19T20:25:53.490Z,8.43
2022-10-19T20:28:21.214Z,9.60
2022-10-19T20:30:48.933Z,9.20
2022-10-19T20:33:16.726Z,9.40
2022-10-19T20:35:44.561Z,7.93
2022-10-19T20:38:12.295Z,10.80
2022-10-19T20:40:41.482Z,9.13
2022-10-19T20:43:09.297Z,6.07
2022-10-19T20:45:37.022Z,6.70
2022-10-19T20:48:04.898Z,9.07
2022-10-19T20:50:32.971Z,8.67
2022-10-19T20:53:00.737Z,10.00
2022-10-19T20:55:28.497Z,10.40
2022-10-19T20:57:57.576Z,8.87
2022-10-19T21:00:25.373Z,10.37
2022-10-19T21:02:53.616Z,8.87
2022-10-19T21:05:21.398Z,9.13
2022-10-19T21:07:49.122Z,7.13
2022-10-19T21:10:16.985Z,9.33
2022-10-19T21:12:44.688Z,10.20
2022-10-19T21:15:13.978Z,6.97
2022-10-19T21:17:41.727Z,7.63
2022-10-19T21:20:10.218Z,9.73
2022-10-19T21:22:41.240Z,8.40
2022-10-19T21:25:10.364Z,9.03
2022-10-19T21:27:38.362Z,10.60
2022-10-19T21:30:07.019Z,9.37
2022-10-19T21:32:36.175Z,8.57
2022-10-19T21:35:05.717Z,9.37
2022-10-19T21:37:33.667Z,9.53
2022-10-19T21:40:01.648Z,11.27
2022-10-19T21:42:29.349Z,12.47
2022-10-19T21:45:06.258Z,11.40
2022-10-19T21:47:46.169Z,9.70
2022-10-19T21:50:14.045Z,10.60
2022-10-19T21:52:41.819Z,9.37
2022-10-19T21:55:10.622Z,11.53
2022-10-19T21:57:38.615Z,15.27
2022-10-19T22:00:07.503Z,13.57
2022-10-19T22:02:40.707Z,8.50
2022-10-19T22:05:10.358Z,9.03
2022-10-19T22:07:38.251Z,11.50
2022-10-19T22:10:06.759Z,11.00
2022-10-19T22:12:34.919Z,8.40
2022-10-19T22:15:02.985Z,8.03
2022-10-19T22:17:30.729Z,9.77
2022-10-19T22:19:58.642Z,8.97
2022-10-19T22:22:27.806Z,7.80
2022-10-19T22:24:55.614Z,9.40
2022-10-19T22:27:23.354Z,12.33
2022-10-19T22:29:51.961Z,10.40
2022-10-19T22:32:19.805Z,10.90
2022-10-19T22:34:47.714Z,15.10
2022-10-19T22:37:15.466Z,9.43
2022-10-19T22:39:44.624Z,11.00
2022-10-19T22:42:12.375Z,11.30
2022-10-19T22:44:40.118Z,9.27
2022-10-19T22:47:07.828Z,12.43
2022-10-19T22:49:35.581Z,12.13
2022-10-19T22:52:03.488Z,10.53
2022-10-19T22:54:31.245Z,8.63
2022-10-19T22:57:00.363Z,11.33
2022-10-19T22:59:28.090Z,11.90
2022-10-19T23:01:55.923Z,9.17
2022-10-19T23:04:23.917Z,9.27
2022-10-19T23:06:51.641Z,11.83
2022-10-19T23:09:19.472Z,11.37
2022-10-19T23:11:47.448Z,8.33
2022-10-19T23:14:16.677Z,10.93
2022-10-19T23:16:44.421Z,11.50
2022-10-19T23:19:12.193Z,9.23
2022-10-19T23:21:39.933Z,8.23
2022-10-19T23:24:07.773Z,11.93
2022-10-19T23:26:35.528Z,11.60
2022-10-19T23:29:03.283Z,11.33
2022-10-19T23:31:32.915Z,11.50
2022-10-19T23:34:00.745Z,10.70
2022-10-19T23:36:29.965Z,10.87
2022-10-19T23:38:58.956Z,12.37
2022-10-19T23:41:26.928Z,9.73
2022-10-19T23:43:54.797Z,11.17
2022-10-19T23:46:22.649Z,11.37
2022-10-19T23:48:51.783Z,11.97
2022-10-19T23:51:21.133Z,11.80
2022-10-19T23:53:50.969Z,10.17
2022-10-19T23:56:20.914Z,13.03
2022-10-19T23:58:48.710Z,14.33
